Time;durP1;ratioP1;P1;durP2;ratioP2;P2;SDS_P1;SDS_P2;PMS_P1;PMS_P2;Temp;Humidity;BMP_temperature;BMP_pressure;BME280_temperature;BME280_humidity;BME280_pressure;Samples;Min_cycle;Max_cycle;Signal;HPM_P1;HPM_P2
2022/04/08 00:01:23;;;;;;;4.22;2.95;;;;;;;16.67;46.77;97969.98;1829714;78;21054;-60
2022/04/08 00:03:50;;;;;;;5.37;3.02;;;;;;;16.66;46.82;97976.39;1828645;78;21497;-61
2022/04/08 00:06:16;;;;;;;6.08;3.37;;;;;;;16.65;46.85;97973.44;1812607;78;21115;-60
2022/04/08 00:08:44;;;;;;;7.30;3.40;;;;;;;16.64;46.86;97980.38;1808810;78;21123;-60
2022/04/08 00:11:10;;;;;;;4.40;2.75;;;;;;;16.63;46.87;97966.69;1796852;79;21054;-61
2022/04/08 00:13:37;;;;;;;6.62;3.95;;;;;;;16.62;46.91;97962.41;1797026;78;21073;-60
2022/04/08 00:16:07;;;;;;;5.53;3.52;;;;;;;16.62;46.92;97970.45;1797005;79;21073;-61
2022/04/08 00:18:35;;;;;;;4.50;2.90;;;;;;;16.59;46.96;97961.05;1810185;76;21474;-61
2022/04/08 00:21:01;;;;;;;5.25;2.92;;;;;;;16.58;46.98;97968.79;1829548;78;21075;-61
2022/04/08 00:23:29;;;;;;;5.05;3.20;;;;;;;16.56;46.99;97957.51;1829610;78;21029;-61
2022/04/08 00:25:57;;;;;;;5.22;3.00;;;;;;;16.55;47.02;97951.86;1825386;77;21057;-60
2022/04/08 00:28:24;;;;;;;5.92;3.35;;;;;;;16.54;47.07;97944.09;1796920;79;21065;-60
2022/04/08 00:30:51;;;;;;;3.72;3.02;;;;;;;16.53;47.09;97947.28;1796923;79;21076;-59
2022/04/08 00:33:17;;;;;;;5.53;2.85;;;;;;;16.52;47.10;97936.29;1796981;79;21126;-60
2022/04/08 00:35:45;;;;;;;4.62;3.42;;;;;;;16.50;47.13;97946.45;1796976;79;21084;-60
2022/04/08 00:38:12;;;;;;;4.72;3.17;;;;;;;16.49;47.16;97948.84;1796961;79;21026;-61
2022/04/08 00:40:38;;;;;;;7.30;2.87;;;;;;;16.48;47.18;97933.84;1796965;79;20990;-61
2022/04/08 00:43:16;;;;;;;4.70;2.77;;;;;;;16.47;47.19;97936.22;1798090;78;21069;-61
2022/04/08 00:45:43;;;;;;;4.60;2.87;;;;;;;16.46;47.24;97923.90;1796943;79;21208;-59
2022/04/08 00:48:09;;;;;;;4.20;2.70;;;;;;;16.45;47.24;97916.91;1796806;79;21089;-60
2022/04/08 00:50:41;;;;;;;4.05;2.58;;;;;;;16.45;47.27;97916.91;1797234;79;21486;-60
2022/04/08 00:53:08;;;;;;;4.42;2.90;;;;;;;16.44;47.29;97923.34;1796901;79;21190;-62
2022/04/08 00:55:35;;;;;;;5.85;2.90;;;;;;;16.42;47.31;97912.06;1797066;79;21037;-60
2022/04/08 00:58:03;;;;;;;5.47;3.00;;;;;;;16.39;47.33;97895.13;1801324;78;21082;-61
2022/04/08 01:00:33;;;;;;;4.25;2.90;;;;;;;16.40;47.35;97899.42;1784537;79;21108;-61
2022/04/08 01:03:00;;;;;;;4.55;2.80;;;;;;;16.39;47.37;97890.58;1796913;79;21089;-61
2022/04/08 01:05:27;;;;;;;6.33;3.05;;;;;;;16.38;47.38;97886.80;1797085;79;21589;-61
2022/04/08 01:07:54;;;;;;;4.22;2.72;;;;;;;16.37;47.43;97893.23;1807636;78;21084;-60
2022/04/08 01:10:22;;;;;;;3.70;2.30;;;;;;;16.37;47.45;97896.72;1828232;78;22118;-60
2022/04/08 01:12:49;;;;;;;5.60;3.00;;;;;;;16.36;47.46;97890.27;1827710;78;21000;-60
2022/04/08 01:15:17;;;;;;;5.78;2.80;;;;;;;16.36;47.50;97899.14;1827919;78;21004;-60
2022/04/08 01:17:44;;;;;;;4.58;2.47;;;;;;;16.34;47.49;97888.37;1814169;78;20986;-61
2022/04/08 01:20:13;;;;;;;3.90;2.22;;;;;;;16.34;47.52;97898.58;1796963;79;21025;-60
2022/04/08 01:22:42;;;;;;;4.85;2.65;;;;;;;16.32;47.54;97899.33;1796902;79;21010;-60
2022/04/08 01:25:10;;;;;;;6.65;2.62;;;;;;;16.31;47.57;97894.51;1796804;79;21030;-60
2022/04/08 01:27:38;;;;;;;4.70;2.37;;;;;;;16.30;47.59;97884.87;1796987;79;21053;-60
2022/04/08 01:30:07;;;;;;;6.92;3.02;;;;;;;16.30;47.61;97894.25;1797158;79;21018;-59
2022/04/08 01:32:36;;;;;;;4.85;2.80;;;;;;;16.29;47.62;97886.45;1800702;79;21055;-60
2022/04/08 01:35:04;;;;;;;5.67;2.45;;;;;;;16.28;47.63;97880.29;1801657;78;22160;-59
2022/04/08 01:37:31;;;;;;;4.97;2.47;;;;;;;16.27;47.67;97884.02;1800529;79;21031;-60
2022/04/08 01:39:57;;;;;;;4.92;2.95;;;;;;;16.27;47.69;97881.34;1800591;79;21035;-61
2022/04/08 01:42:24;;;;;;;4.25;2.40;;;;;;;16.25;47.70;97882.12;1800692;78;21040;-60
2022/04/08 01:44:52;;;;;;;3.65;2.60;;;;;;;16.25;47.72;97885.34;1800549;79;21071;-60
2022/04/08 01:47:19;;;;;;;3.50;2.50;;;;;;;16.24;47.73;97878.34;1800581;79;21133;-60
2022/04/08 01:49:47;;;;;;;3.30;2.83;;;;;;;16.23;47.75;97875.41;1800619;78;21038;-61
2022/04/08 01:52:14;;;;;;;6.22;2.85;;;;;;;16.22;47.77;97875.91;1801859;78;20983;-60
2022/04/08 01:54:42;;;;;;;5.67;2.62;;;;;;;16.21;47.80;97864.12;1800675;79;20996;-60
2022/04/08 01:57:08;;;;;;;3.83;2.60;;;;;;;16.21;47.79;97860.11;1800596;79;21031;-60
2022/04/08 01:59:35;;;;;;;4.75;2.87;;;;;;;16.20;47.82;97865.97;1800646;78;21558;-60
2022/04/08 02:02:02;;;;;;;4.00;2.77;;;;;;;16.19;47.84;97855.53;1800474;79;21023;-60
2022/04/08 02:04:29;;;;;;;4.55;2.47;;;;;;;16.18;47.86;97857.38;1800522;79;21127;-60
2022/04/08 02:06:56;;;;;;;7.45;3.40;;;;;;;16.18;47.88;97864.08;1800552;79;20997;-60
2022/04/08 02:09:22;;;;;;;4.75;3.08;;;;;;;16.18;47.91;97861.94;1823951;78;20991;-60
2022/04/08 02:11:48;;;;;;;4.20;2.58;;;;;;;16.17;47.92;97861.13;1833262;78;21121;-60
2022/04/08 02:14:15;;;;;;;4.62;2.42;;;;;;;16.16;47.94;97857.36;1832416;77;21016;-59
2022/04/08 02:16:43;;;;;;;6.78;2.83;;;;;;;16.15;47.95;97853.05;1833094;78;21011;-60
2022/04/08 02:19:10;;;;;;;5.60;2.40;;;;;;;16.14;47.98;97862.96;1833300;77;21012;-60
2022/04/08 02:21:37;;;;;;;4.25;2.85;;;;;;;16.13;47.98;97866.72;1833470;77;21039;-60
2022/04/08 02:24:05;;;;;;;2.85;2.30;;;;;;;16.13;48.00;97872.07;1833363;78;21822;-61
2022/04/08 02:26:32;;;;;;;4.40;2.40;;;;;;;16.13;48.03;97870.73;1807543;78;20988;-60
2022/04/08 02:28:59;;;;;;;3.80;2.30;;;;;;;16.11;48.02;97859.46;1800511;79;21011;-60
2022/04/08 02:31:26;;;;;;;3.25;2.33;;;;;;;16.11;48.03;97855.44;1802993;79;21080;-59
2022/04/08 02:33:53;;;;;;;4.10;2.50;;;;;;;16.10;48.05;97861.31;1805370;79;21108;-60
2022/04/08 02:36:20;;;;;;;4.70;2.60;;;;;;;16.09;48.05;97857.02;1805485;78;22876;-60
2022/04/08 02:38:47;;;;;;;4.78;2.60;;;;;;;16.08;48.10;97851.37;1805247;79;21089;-60
2022/04/08 02:41:13;;;;;;;4.65;2.67;;;;;;;16.08;48.12;97843.34;1805465;79;21029;-59
2022/04/08 02:43:40;;;;;;;4.25;2.33;;;;;;;16.08;48.13;97850.58;1806426;78;20994;-60
2022/04/08 02:46:07;;;;;;;4.40;2.52;;;;;;;16.08;48.15;97850.03;1805385;79;21111;-60
2022/04/08 02:48:34;;;;;;;5.60;2.50;;;;;;;16.07;48.16;97846.27;1805496;79;21203;-60
2022/04/08 02:51:00;;;;;;;4.95;2.67;;;;;;;16.06;48.17;97842.78;1805222;79;21077;-60
2022/04/08 02:53:27;;;;;;;4.55;2.72;;;;;;;16.06;48.20;97847.34;1805304;79;21028;-60
2022/04/08 02:55:53;;;;;;;4.87;2.60;;;;;;;16.05;48.21;97837.67;1805241;79;21052;-60
2022/04/08 02:58:20;;;;;;;4.20;2.00;;;;;;;16.04;48.22;97835.53;1814062;78;21020;-60
2022/04/08 03:00:46;;;;;;;5.08;2.35;;;;;;;16.04;48.24;97837.41;1809646;78;21057;-60
2022/04/08 03:03:12;;;;;;;5.30;2.30;;;;;;;16.04;48.25;97840.09;1805291;79;21029;-60
2022/04/08 03:05:39;;;;;;;4.37;2.45;;;;;;;16.02;48.27;97834.97;1805373;79;21045;-60
2022/04/08 03:08:06;;;;;;;3.98;2.72;;;;;;;16.02;48.29;97830.15;1805344;79;21525;-60
2022/04/08 03:10:34;;;;;;;3.75;1.95;;;;;;;16.02;48.29;97834.17;1805314;79;21049;-60
2022/04/08 03:13:02;;;;;;;3.72;1.98;;;;;;;16.01;48.32;97831.20;1805326;79;21057;-60
2022/04/08 03:15:30;;;;;;;3.90;2.27;;;;;;;16.01;48.35;97834.70;1805423;79;21573;-60
2022/04/08 03:17:57;;;;;;;5.58;2.67;;;;;;;16.00;48.35;97832.27;1808905;78;21092;-60
2022/04/08 03:20:23;;;;;;;4.67;2.40;;;;;;;15.99;48.37;97834.66;1837775;78;21077;-61
2022/04/08 03:22:50;;;;;;;3.80;2.35;;;;;;;15.99;48.39;97829.30;1838007;78;21042;-60
2022/04/08 03:25:19;;;;;;;3.52;2.25;;;;;;;15.98;48.42;97823.14;1837954;78;21143;-60
2022/04/08 03:27:45;;;;;;;5.05;2.47;;;;;;;15.97;48.40;97836.23;1837843;78;21077;-59
2022/04/08 03:30:12;;;;;;;4.90;2.27;;;;;;;15.96;48.42;97835.97;1837903;78;21002;-60
2022/04/08 03:32:39;;;;;;;6.85;2.55;;;;;;;15.97;48.45;97830.08;1829036;78;21007;-60
2022/04/08 03:35:07;;;;;;;3.08;2.20;;;;;;;15.95;48.47;97835.67;1797139;78;21092;-60
2022/04/08 03:37:35;;;;;;;2.87;1.98;;;;;;;15.96;48.47;97843.20;1797574;79;21085;-60
2022/04/08 03:40:01;;;;;;;5.78;2.40;;;;;;;15.94;48.52;97845.33;1796789;79;21096;-60
2022/04/08 03:44:52;;;;;;;3.30;2.00;;;;;;;15.98;48.53;97851.80;1870287;76;28075;-59
2022/04/08 03:47:21;;;;;;;4.12;2.08;;;;;;;15.92;48.54;97852.27;1826662;78;21045;-61
2022/04/08 03:49:48;;;;;;;4.70;2.20;;;;;;;15.92;48.56;97854.41;1824743;78;21072;-60
2022/04/08 03:52:15;;;;;;;5.37;2.60;;;;;;;15.91;48.60;97858.13;1793935;79;21052;-59
2022/04/08 03:54:41;;;;;;;4.50;1.87;;;;;;;15.91;48.59;97855.45;1794016;80;21013;-59
2022/04/08 03:57:08;;;;;;;3.12;2.08;;;;;;;15.91;48.62;97859.47;1793924;80;20961;-59
2022/04/08 03:59:34;;;;;;;3.08;2.20;;;;;;;15.90;48.63;97853.84;1819196;78;21050;-59
2022/04/08 04:02:01;;;;;;;3.62;2.10;;;;;;;15.89;48.64;97854.89;1826473;78;21143;-59
2022/04/08 04:04:27;;;;;;;3.47;2.05;;;;;;;15.88;48.68;97845.25;1826508;78;21481;-60
2022/04/08 04:06:54;;;;;;;3.37;2.42;;;;;;;15.89;48.68;97840.70;1825505;78;21033;-59
2022/04/08 04:09:23;;;;;;;3.35;2.52;;;;;;;15.87;48.70;97834.78;1826443;78;21064;-60
2022/04/08 04:11:50;;;;;;;3.62;2.35;;;;;;;15.87;48.73;97832.11;1826408;78;21072;-59
2022/04/08 04:14:16;;;;;;;3.58;2.00;;;;;;;15.86;48.73;97834.52;1826490;78;21164;-59
2022/04/08 04:16:43;;;;;;;4.75;2.55;;;;;;;15.85;48.74;97822.98;1826490;78;21048;-61
2022/04/08 04:19:10;;;;;;;5.55;2.70;;;;;;;15.86;48.75;97821.13;1826581;78;21502;-60
2022/04/08 04:21:38;;;;;;;4.25;2.25;;;;;;;15.86;48.78;97816.58;1826428;78;20974;-60
2022/04/08 04:24:06;;;;;;;4.85;2.27;;;;;;;15.85;48.78;97807.45;1824448;78;21025;-60
2022/04/08 04:26:34;;;;;;;5.30;2.77;;;;;;;15.84;48.80;97807.98;1819935;78;21077;-60
2022/04/08 04:29:01;;;;;;;4.62;2.22;;;;;;;15.82;48.83;97800.73;1826469;78;20986;-60
2022/04/08 04:31:27;;;;;;;3.55;2.17;;;;;;;15.83;48.82;97801.00;1826791;78;21029;-61
2022/04/08 04:33:54;;;;;;;2.20;2.00;;;;;;;15.82;48.86;97812.78;1826560;78;21467;-59
2022/04/08 04:36:20;;;;;;;3.30;1.87;;;;;;;15.82;48.88;97814.63;1826497;78;20985;-59
2022/04/08 04:38:47;;;;;;;5.03;2.45;;;;;;;15.82;48.88;97813.29;1826409;78;21141;-61
2022/04/08 04:41:15;;;;;;;3.25;2.20;;;;;;;15.81;48.90;97809.81;1818665;78;21013;-59
2022/04/08 04:43:43;;;;;;;2.85;2.22;;;;;;;15.81;48.93;97805.00;1796349;78;21118;-59
2022/04/08 04:46:11;;;;;;;2.85;2.10;;;;;;;15.81;48.93;97807.67;1799840;79;21016;-60
2022/04/08 04:48:39;;;;;;;4.10;2.37;;;;;;;15.79;48.95;97793.19;1799891;79;21013;-60
2022/04/08 04:51:06;;;;;;;3.58;2.60;;;;;;;15.79;48.97;97798.55;1799879;79;21226;-60
2022/04/08 04:53:32;;;;;;;3.87;2.35;;;;;;;15.79;48.97;97802.56;1799960;79;21486;-61
2022/04/08 04:55:59;;;;;;;4.65;2.05;;;;;;;15.79;48.98;97803.09;1799345;79;21087;-61
2022/04/08 04:58:26;;;;;;;3.30;2.30;;;;;;;15.79;48.99;97815.95;1810421;78;21053;-61
2022/04/08 05:00:53;;;;;;;4.78;2.72;;;;;;;15.79;49.02;97803.09;1832071;78;21072;-60
2022/04/08 05:03:19;;;;;;;3.83;1.95;;;;;;;15.79;49.02;97795.06;1831963;77;21219;-60
2022/04/08 05:05:47;;;;;;;2.70;2.05;;;;;;;15.80;49.03;97796.67;1832005;78;20978;-61
2022/04/08 05:08:15;;;;;;;3.62;2.42;;;;;;;15.79;49.04;97788.38;1831950;78;21010;-60
2022/04/08 05:10:42;;;;;;;3.77;2.30;;;;;;;15.79;49.08;97798.55;1831900;78;20986;-60
2022/04/08 05:13:08;;;;;;;4.50;2.35;;;;;;;15.79;49.09;97801.22;1831889;77;22161;-60
2022/04/08 05:15:38;;;;;;;2.87;1.98;;;;;;;15.79;49.09;97799.08;1830774;78;21120;-59
2022/04/08 05:18:04;;;;;;;6.60;2.60;;;;;;;15.80;49.10;97792.66;1831929;77;21001;-60
2022/04/08 05:20:32;;;;;;;3.02;2.17;;;;;;;15.80;49.09;97784.11;1832342;78;21536;-59
2022/04/08 05:22:59;;;;;;;2.95;2.00;;;;;;;15.81;49.13;97788.93;1832039;78;21474;-59
2022/04/08 05:25:27;;;;;;;4.62;2.20;;;;;;;15.81;49.14;97782.23;1832033;77;21056;-60
2022/04/08 05:27:54;;;;;;;3.55;2.10;;;;;;;15.82;49.13;97780.66;1832062;78;22017;-60
2022/04/08 05:30:21;;;;;;;3.22;2.05;;;;;;;15.83;49.14;97772.89;1831843;78;20988;-60
2022/04/08 05:32:48;;;;;;;3.80;2.20;;;;;;;15.82;49.15;97756.56;1816158;78;20962;-60
2022/04/08 05:35:16;;;;;;;5.60;2.55;;;;;;;15.85;49.16;97763.27;1799338;79;21040;-61
2022/04/08 05:37:46;;;;;;;4.05;2.12;;;;;;;15.85;49.16;97757.92;1799287;79;21587;-60
2022/04/08 05:40:18;;;;;;;4.85;2.42;;;;;;;15.87;49.18;97735.72;1799055;79;21447;-61
2022/04/08 05:42:49;;;;;;;5.65;2.22;;;;;;;15.87;49.18;97743.75;1799178;79;21085;-61
2022/04/08 05:45:18;;;;;;;4.17;2.27;;;;;;;15.87;49.18;97732.50;1793703;79;21013;-61
2022/04/08 05:47:47;;;;;;;2.98;2.17;;;;;;;15.89;49.18;97736.27;1793626;79;21082;-61
2022/04/08 05:50:14;;;;;;;3.60;2.35;;;;;;;15.89;49.19;97734.39;1794526;78;21048;-60
2022/04/08 05:52:41;;;;;;;4.58;2.37;;;;;;;15.91;49.21;97733.61;1793335;80;21206;-60
2022/04/08 05:55:08;;;;;;;3.85;2.08;;;;;;;15.92;49.21;97737.92;1793208;80;20998;-59
2022/04/08 05:57:40;;;;;;;3.80;2.40;;;;;;;15.95;49.22;97754.55;1793410;79;21037;-60
2022/04/08 06:00:10;;;;;;;2.95;2.35;;;;;;;15.95;49.23;97754.00;1793267;79;21009;-60
2022/04/08 06:02:38;;;;;;;4.85;2.12;;;;;;;15.97;49.24;97747.06;1793750;80;21544;-61
2022/04/08 06:05:07;;;;;;;4.53;2.00;;;;;;;15.98;49.25;97752.17;1793240;80;21072;-59
2022/04/08 06:07:33;;;;;;;3.15;2.12;;;;;;;15.99;49.26;97746.28;1794401;78;21038;-60
2022/04/08 06:10:03;;;;;;;4.97;2.00;;;;;;;16.00;49.28;97744.70;1793366;79;21005;-60
2022/04/08 06:12:29;;;;;;;4.25;2.77;;;;;;;16.01;49.30;97758.89;1793304;79;21025;-60
2022/04/08 06:14:58;;;;;;;3.05;2.40;;;;;;;16.02;49.31;97759.18;1793357;80;20970;-61
2022/04/08 06:17:34;;;;;;;3.75;1.95;;;;;;;16.03;49.33;97772.83;1793337;79;20998;-60
2022/04/08 06:20:01;;;;;;;5.37;2.05;;;;;;;16.03;49.30;97755.42;1774926;80;21019;-60
2022/04/08 06:22:27;;;;;;;3.47;2.22;;;;;;;16.03;49.34;97744.71;1793515;80;21501;-60
2022/04/08 06:24:54;;;;;;;4.37;2.05;;;;;;;16.04;49.37;97745.01;1794425;78;21007;-60
2022/04/08 06:27:21;;;;;;;2.92;2.00;;;;;;;16.04;49.39;97740.98;1793297;79;21025;-60
2022/04/08 06:29:48;;;;;;;3.42;2.47;;;;;;;16.04;49.40;97739.11;1793248;80;21145;-60
2022/04/08 06:32:14;;;;;;;4.25;2.30;;;;;;;16.05;49.42;97734.55;1793343;80;21005;-60
2022/04/08 06:34:41;;;;;;;4.58;2.47;;;;;;;16.06;49.42;97725.47;1793394;80;21493;-60
2022/04/08 06:37:08;;;;;;;4.67;2.47;;;;;;;16.07;49.44;97732.44;1821954;78;21033;-61
2022/04/08 06:39:36;;;;;;;5.15;2.25;;;;;;;16.08;49.45;97732.72;1814037;79;21494;-59
2022/04/08 06:42:03;;;;;;;4.75;2.20;;;;;;;16.08;49.46;97732.72;1794216;78;21119;-61
2022/04/08 06:44:31;;;;;;;4.15;2.30;;;;;;;16.09;49.51;97732.48;1796032;79;21477;-59
2022/04/08 06:46:58;;;;;;;2.98;2.00;;;;;;;16.10;49.50;97746.67;1799102;79;20990;-60
2022/04/08 06:49:25;;;;;;;3.52;2.12;;;;;;;16.11;49.51;97764.38;1799234;79;21004;-59
2022/04/08 06:51:53;;;;;;;4.78;2.00;;;;;;;16.12;49.56;97778.03;1799123;79;21075;-60
2022/04/08 06:54:21;;;;;;;4.17;2.30;;;;;;;16.14;49.60;97789.84;1799356;79;21998;-60
2022/04/08 06:56:48;;;;;;;5.72;2.40;;;;;;;16.16;49.55;97791.73;1800193;78;21497;-60
2022/04/08 06:59:14;;;;;;;3.83;1.80;;;;;;;16.17;49.61;97774.08;1821104;78;21022;-60
2022/04/08 07:01:42;;;;;;;4.45;2.37;;;;;;;16.19;49.57;97767.13;1831860;78;20969;-61
2022/04/08 07:04:08;;;;;;;3.75;2.12;;;;;;;16.21;49.64;97773.05;1831901;78;21438;-61
2022/04/08 07:06:35;;;;;;;3.52;2.10;;;;;;;16.22;49.66;97768.75;1831938;78;21727;-60
2022/04/08 07:09:03;;;;;;;4.78;2.02;;;;;;;16.24;49.69;97770.64;1831880;77;21005;-60
2022/04/08 07:11:31;;;;;;;4.15;2.33;;;;;;;16.27;49.72;97778.72;1831906;77;21061;-60
2022/04/08 07:13:59;;;;;;;2.72;1.90;;;;;;;16.28;49.67;97769.09;1827592;77;21021;-60
2022/04/08 07:16:27;;;;;;;3.22;2.30;;;;;;;16.31;49.69;97771.25;1799186;79;21045;-60
2022/04/08 07:18:55;;;;;;;4.35;2.50;;;;;;;16.33;49.62;97781.73;1799082;79;21200;-60
2022/04/08 07:21:22;;;;;;;4.37;2.10;;;;;;;16.36;49.69;97785.76;1799100;79;21014;-59
2022/04/08 07:23:50;;;;;;;5.70;2.67;;;;;;;16.38;49.59;97793.02;1799099;79;21001;-61
2022/04/08 07:26:18;;;;;;;2.60;1.85;;;;;;;16.39;49.60;97786.06;1799156;79;21138;-60
2022/04/08 07:28:46;;;;;;;3.08;2.10;;;;;;;16.42;49.59;97783.44;1799257;79;21570;-60
2022/04/08 07:31:13;;;;;;;4.03;2.92;;;;;;;16.42;49.63;97783.44;1800293;78;21130;-60
2022/04/08 07:33:40;;;;;;;3.05;2.00;;;;;;;16.45;49.62;97785.59;1799112;79;21062;-59
2022/04/08 07:36:07;;;;;;;3.08;2.05;;;;;;;16.46;49.61;97794.72;1799135;79;21469;-60
2022/04/08 07:38:33;;;;;;;4.83;2.47;;;;;;;16.47;49.65;97797.66;1820602;78;21595;-60
2022/04/08 07:41:00;;;;;;;4.58;2.60;;;;;;;16.49;49.62;97787.49;1831787;78;21049;-60
2022/04/08 07:43:30;;;;;;;3.15;2.00;;;;;;;16.50;49.59;97799.84;1831767;78;21061;-60
2022/04/08 07:45:56;;;;;;;2.95;1.90;;;;;;;16.54;49.64;97805.51;1831785;77;20985;-60
2022/04/08 07:48:26;;;;;;;3.62;2.17;;;;;;;16.56;49.67;97802.58;1821701;78;21056;-60
2022/04/08 07:50:53;;;;;;;2.25;2.00;;;;;;;16.57;49.66;97814.37;1799135;79;21336;-61
2022/04/08 07:53:20;;;;;;;6.42;2.35;;;;;;;16.59;49.65;97820.82;1799231;79;21012;-60
2022/04/08 07:55:46;;;;;;;5.08;2.00;;;;;;;16.60;49.65;97816.55;1799268;79;21133;-61
2022/04/08 07:58:14;;;;;;;6.47;3.08;;;;;;;16.62;49.65;97803.70;1820929;78;21001;-60
2022/04/08 08:00:40;;;;;;;3.22;2.20;;;;;;;16.63;49.71;97799.97;1831858;78;20990;-60
2022/04/08 08:03:06;;;;;;;3.22;2.37;;;;;;;16.65;49.72;97791.14;1831820;78;21017;-60
2022/04/08 08:05:38;;;;;;;4.10;2.62;;;;;;;16.67;49.74;97790.35;1830677;78;21060;-60
2022/04/08 08:08:19;;;;;;;2.85;2.22;;;;;;;16.70;49.69;97794.39;1815666;78;21123;-60
2022/04/08 08:10:55;;;;;;;4.67;2.42;;;;;;;16.71;49.72;97787.43;1831836;78;21049;-60
2022/04/08 08:13:30;;;;;;;3.00;1.85;;;;;;;16.73;49.73;97797.08;1813695;78;20978;-59
2022/04/08 08:16:07;;;;;;;3.00;2.10;;;;;;;16.76;49.75;97785.86;1831758;77;21005;-60
2022/04/08 08:18:46;;;;;;;4.60;2.40;;;;;;;16.78;49.77;97786.41;1831776;77;20977;-60
2022/04/08 08:21:21;;;;;;;3.65;2.12;;;;;;;16.78;49.79;97781.84;1832032;78;21853;-60
2022/04/08 08:23:57;;;;;;;4.40;1.98;;;;;;;16.81;49.78;97779.20;1830616;78;21060;-59
2022/04/08 08:26:33;;;;;;;5.28;2.72;;;;;;;16.82;49.78;97761.52;1815287;78;20970;-60
2022/04/08 08:29:09;;;;;;;4.45;2.00;;;;;;;16.84;49.79;97753.23;1831725;78;20978;-61
2022/04/08 08:31:44;;;;;;;3.27;2.98;;;;;;;16.85;49.72;97761.02;1832128;78;21049;-60
2022/04/08 08:34:26;;;;;;;4.55;2.50;;;;;;;16.88;49.63;97746.28;1832099;78;21131;-60
2022/04/08 08:37:02;;;;;;;3.10;2.45;;;;;;;16.90;49.55;97748.17;1831519;77;20998;-60
2022/04/08 08:39:33;;;;;;;3.80;1.90;;;;;;;16.93;49.46;97743.64;1815490;78;21052;-60
2022/04/08 08:42:12;;;;;;;4.90;2.20;;;;;;;16.95;49.36;97733.47;1815777;78;21391;-60
2022/04/08 08:44:41;;;;;;;3.35;2.02;;;;;;;16.98;49.32;97728.94;1832192;78;21048;-60
2022/04/08 08:47:12;;;;;;;3.90;2.20;;;;;;;17.00;49.32;97734.05;1832012;77;21520;-60
2022/04/08 08:49:39;;;;;;;3.02;2.10;;;;;;;17.03;49.24;97741.56;1832371;78;21099;-60
2022/04/08 08:52:07;;;;;;;4.08;2.05;;;;;;;17.04;49.21;97737.28;1831959;77;21509;-60
2022/04/08 08:54:35;;;;;;;4.25;1.80;;;;;;;17.08;49.22;97745.08;1790302;78;21048;-59
2022/04/08 08:57:03;;;;;;;7.10;2.87;;;;;;;17.09;49.19;97749.91;1813377;78;21548;-60
2022/04/08 08:59:31;;;;;;;3.42;2.25;;;;;;;17.10;49.21;97755.02;1799334;79;21118;-60
2022/04/08 09:02:02;;;;;;;4.08;2.37;;;;;;;17.13;49.21;97755.56;1799397;79;21458;-60
2022/04/08 09:04:30;;;;;;;4.33;2.58;;;;;;;17.13;49.15;97749.66;1799621;79;21485;-60
2022/04/08 09:07:00;;;;;;;3.92;2.65;;;;;;;17.15;49.12;97743.50;1799357;79;21505;-60
2022/04/08 09:09:32;;;;;;;3.37;2.37;;;;;;;17.18;49.13;97749.70;1799352;79;20993;-60
2022/04/08 09:12:12;;;;;;;3.85;2.27;;;;;;;17.19;49.13;97747.81;1799265;79;21013;-60
2022/04/08 09:14:52;;;;;;;3.40;2.25;;;;;;;17.20;49.08;97744.88;1800361;78;21533;-61
2022/04/08 09:17:21;;;;;;;3.30;2.02;;;;;;;17.22;49.04;97744.63;1799584;79;20993;-60
2022/04/08 09:19:53;;;;;;;2.90;2.10;;;;;;;17.23;49.07;97735.49;1799278;79;21036;-60
2022/04/08 09:22:20;;;;;;;4.92;2.22;;;;;;;17.25;49.03;97742.78;1799483;79;21461;-60
2022/04/08 09:24:48;;;;;;;4.70;2.50;;;;;;;17.27;49.03;97740.64;1799168;79;21140;-60
2022/04/08 09:27:15;;;;;;;3.70;2.70;;;;;;;17.29;49.01;97743.88;1799271;79;21025;-60
2022/04/08 09:29:43;;;;;;;3.72;2.40;;;;;;;17.31;48.99;97737.70;1800156;78;21494;-61
2022/04/08 09:32:19;;;;;;;3.45;2.22;;;;;;;17.34;49.00;97741.73;1799279;79;21457;-61
2022/04/08 09:34:43;;;;;;;3.75;2.27;;;;;;;17.36;48.99;97745.77;1799141;79;21053;-59
2022/04/08 09:37:15;;;;;;;2.35;2.12;;;;;;;17.38;48.99;97753.56;1786187;78;21125;-60
2022/04/08 09:40:04;;;;;;;4.22;2.45;;;;;;;17.39;49.02;97766.73;1832053;78;21009;-60
2022/04/08 09:42:45;;;;;;;3.27;2.15;;;;;;;17.42;49.03;97764.88;1831951;77;20974;-60
2022/04/08 09:45:13;;;;;;;5.37;2.70;;;;;;;17.44;49.05;97757.37;1831814;78;21013;-60
2022/04/08 09:47:41;;;;;;;3.92;2.50;;;;;;;17.48;49.09;97752.26;1830954;77;21040;-61
2022/04/08 09:50:10;;;;;;;3.35;2.12;;;;;;;17.50;49.14;97748.81;1831971;78;21897;-59
2022/04/08 09:52:40;;;;;;;3.42;2.25;;;;;;;17.53;49.18;97753.63;1831828;78;21575;-60
2022/04/08 09:55:09;;;;;;;2.90;2.05;;;;;;;17.56;49.24;97748.27;1832043;78;21021;-60
2022/04/08 09:57:39;;;;;;;4.58;2.80;;;;;;;17.59;49.30;97749.90;1832333;78;21504;-60
2022/04/08 10:00:07;;;;;;;3.80;2.22;;;;;;;17.61;49.36;97737.02;1831972;78;21556;-60
2022/04/08 10:02:41;;;;;;;4.83;2.58;;;;;;;17.64;49.35;97737.05;1832046;78;21032;-60
2022/04/08 10:05:09;;;;;;;2.65;2.10;;;;;;;17.66;49.37;97745.10;1812498;78;21572;-60
2022/04/08 10:07:36;;;;;;;3.08;2.35;;;;;;;17.69;49.36;97734.36;1799182;79;21032;-60
2022/04/08 10:10:26;;;;;;;3.77;2.33;;;;;;;17.70;49.37;97734.64;1799162;79;21064;-60
2022/04/08 10:13:21;;;;;;;3.05;2.30;;;;;;;17.73;49.40;97736.81;1799594;79;21045;-60
2022/04/08 10:16:20;;;;;;;3.58;2.10;;;;;;;17.76;49.41;97743.53;1799252;79;21065;-59
2022/04/08 10:18:48;;;;;;;2.50;1.98;;;;;;;17.78;49.49;97734.67;1799353;79;21493;-60
2022/04/08 10:21:16;;;;;;;3.15;2.25;;;;;;;17.81;49.57;97754.27;1800284;78;21029;-61
2022/04/08 10:23:52;;;;;;;2.85;2.25;;;;;;;17.82;49.61;97738.44;1799318;79;21548;-59
2022/04/08 10:26:23;;;;;;;3.98;2.40;;;;;;;17.86;49.60;97731.50;1799272;79;21036;-60
2022/04/08 10:28:51;;;;;;;3.62;2.42;;;;;;;17.88;49.71;97730.15;1799482;79;22029;-60
2022/04/08 10:31:24;;;;;;;5.10;2.60;;;;;;;17.92;49.75;97711.62;1799217;79;21457;-60
2022/04/08 10:33:56;;;;;;;4.60;2.77;;;;;;;17.95;49.79;97731.80;1799379;79;21029;-60
2022/04/08 10:36:44;;;;;;;5.00;2.72;;;;;;;17.96;49.68;97736.09;1799481;79;21525;-59
2022/04/08 10:39:17;;;;;;;4.12;2.50;;;;;;;17.97;49.63;97737.72;1828316;78;21021;-59
2022/04/08 10:41:50;;;;;;;3.15;2.45;;;;;;;17.97;49.54;97729.11;1831966;78;21269;-60
2022/04/08 10:44:36;;;;;;;2.42;2.17;;;;;;;17.99;49.46;97736.38;1832087;78;21013;-59
2022/04/08 10:47:16;;;;;;;2.58;2.10;;;;;;;18.00;49.35;97731.80;1832098;78;21208;-60
2022/04/08 10:49:52;;;;;;;2.33;2.12;;;;;;;17.99;49.27;97731.00;1832130;78;21018;-60
2022/04/08 10:52:26;;;;;;;3.60;2.33;;;;;;;18.00;49.22;97742.55;1831963;77;20986;-60
2022/04/08 10:55:11;;;;;;;3.30;2.60;;;;;;;18.00;49.18;97750.60;1830172;77;21202;-60
2022/04/08 10:57:42;;;;;;;4.42;2.15;;;;;;;18.00;49.13;97747.91;1832135;77;21017;-60
2022/04/08 11:00:14;;;;;;;4.30;2.33;;;;;;;17.99;49.10;97750.34;1831982;78;21024;-60
2022/04/08 11:02:43;;;;;;;2.25;1.70;;;;;;;17.97;49.02;97748.46;1832365;77;22033;-61
2022/04/08 11:05:12;;;;;;;2.72;2.30;;;;;;;17.98;48.98;97756.77;1831879;78;20994;-61
2022/04/08 11:07:44;;;;;;;3.12;2.20;;;;;;;17.96;48.93;97761.06;1832305;78;21083;-60
2022/04/08 11:10:18;;;;;;;4.60;2.50;;;;;;;17.96;48.89;97771.02;1832041;77;21517;-60
2022/04/08 11:12:50;;;;;;;3.65;2.47;;;;;;;17.95;48.83;97777.47;1817316;77;21533;-60
2022/04/08 11:15:24;;;;;;;3.52;2.30;;;;;;;17.95;48.81;97781.50;1799194;79;20989;-60
2022/04/08 11:17:52;;;;;;;2.80;2.30;;;;;;;17.93;48.77;97789.02;1799538;79;21016;-61
2022/04/08 11:20:21;;;;;;;3.00;2.30;;;;;;;17.92;48.77;97804.84;1799438;79;21275;-60
2022/04/08 11:22:50;;;;;;;2.92;2.33;;;;;;;17.92;48.79;97815.59;1799219;79;20985;-60
2022/04/08 11:25:26;;;;;;;3.17;2.47;;;;;;;17.91;48.75;97833.59;1799243;79;21060;-60
2022/04/08 11:28:04;;;;;;;2.92;1.87;;;;;;;17.91;48.75;97844.88;1799247;79;21005;-60
2022/04/08 11:30:35;;;;;;;3.90;2.00;;;;;;;17.90;48.75;97851.31;1800268;78;21011;-61
2022/04/08 11:33:18;;;;;;;2.98;2.20;;;;;;;17.88;48.70;97863.11;1799338;79;21104;-60
2022/04/08 11:35:47;;;;;;;4.65;2.33;;;;;;;17.87;48.74;97868.77;1799218;79;21150;-59
2022/04/08 11:38:15;;;;;;;2.35;1.85;;;;;;;17.85;48.78;97870.37;1816352;78;21505;-60
2022/04/08 11:40:44;;;;;;;3.02;2.10;;;;;;;17.84;48.86;97878.68;1831986;77;21052;-60
2022/04/08 11:43:18;;;;;;;3.33;2.20;;;;;;;17.84;48.93;97885.39;1831826;78;21017;-60
2022/04/08 11:45:50;;;;;;;2.80;2.22;;;;;;;17.81;49.01;97878.64;1830851;76;21466;-60